Texas Instruments PE Ratio 2006-2018 | TXN

Current and historical p/e ratio for Texas Instruments (TXN) from 2006 to 2018. The price to earnings ratio is calculated by taking the latest closing price and dividing it by the most recent earnings per share (EPS) number. The PE ratio is a simple way to assess whether a stock is over or under valued and is the most widely used valuation measure. Texas Instruments PE ratio as of December 12, 2018 is 18.25.
Texas Instruments PE Ratio Historical Data
Date Stock Price TTM Net EPS PE Ratio
2018-12-12 95.81 20.52
2018-09-30 107.29 $4.67 22.97
2018-06-30 109.64 $4.35 25.20
2018-03-31 102.70 $3.98 25.81
2017-12-31 102.67 $3.60 28.52
2017-09-30 87.55 $4.28 20.46
2017-06-30 74.68 $3.96 18.86
2017-03-31 77.72 $3.69 21.06
2016-12-31 69.95 $3.37 20.76
2016-09-30 66.78 $3.15 21.20
2016-06-30 59.30 $2.97 19.97
2016-03-31 54.00 $2.86 18.88
2015-12-31 51.16 $2.82 18.14
2015-09-30 45.93 $2.78 16.52
2015-06-30 47.45 $2.78 17.07
2015-03-31 52.36 $2.75 19.04
2014-12-31 48.64 $2.58 18.85
2014-09-30 43.09 $2.28 18.90
2014-06-30 42.90 $2.08 20.63
2014-03-31 42.06 $2.04 20.62
2013-12-31 38.88 $1.92 20.25
2013-09-30 35.42 $1.69 20.96
2013-06-30 30.42 $1.80 16.90
2013-03-31 30.73 $1.61 19.09
2012-12-31 26.58 $1.51 17.60
2012-09-30 23.54 $1.53 15.38
2012-06-30 24.36 $1.37 17.78
2012-03-31 28.38 $1.54 18.43
2011-12-31 24.45 $1.87 13.08
2011-09-30 22.27 $2.40 9.28
2011-06-30 27.31 $2.60 10.51
2011-03-31 28.65 $2.66 10.77
2010-12-31 26.84 $2.63 10.21
2010-09-30 22.31 $2.37 9.42
2010-06-30 19.05 $2.08 9.16
2010-03-31 19.93 $1.66 12.01
2009-12-31 21.12 $1.15 18.36
2009-09-30 19.10 $0.71 26.90
2009-06-30 17.10 $0.72 23.74
2009-03-31 13.17 $0.96 13.71
2008-12-31 12.29 $1.44 8.53
2008-09-30 16.92 $1.90 8.91
2008-06-30 22.07 $2.01 10.98
2008-03-31 22.08 $1.99 11.10
2007-12-31 26.01 $1.85 14.06
2007-09-30 28.40 $1.76 16.14
2007-06-30 29.14 $1.68 17.35
2007-03-31 23.26 $2.76 8.43
2006-12-31 22.22 $2.77 8.02
Sector Industry Market Cap Revenue
Computer and Technology Semiconductor - General $92.030B $14.961B
Texas Instruments Incorporated (TI) is a global semiconductor design and manufacturing company that develops analog ICs and embedded processors. By employing the world's brightest minds, TI creates innovations that shape the future of technology. TI is helping approximately 100,000 customers transform the future, today. They produce TI DLP technology and education technology products. Analog products connect the physical and the digital worlds -turning signals like sound, pressure, temperature, humidity and light into digital 1s and 0s to be used by electronic devices - and translating that data back to information we interact with in the real world. Embedded processors are the processing brains of electronics that gather inputs from analog chips and perform computational processing to operate a system. TI DLP? technology powers a range of display and advanced light control applications spanning industrial, enterprise, automotive and consumer market segments, including projectors and cinema technology.
Stock Name Country Market Cap PE Ratio
Intel (INTC) United States $223.764B 10.90
NVIDIA (NVDA) United States $90.829B 21.61
STMicroelectronics (STM) Switzerland $12.445B 9.99
Amtech Systems (ASYS) United States $0.075B 9.36